createdAt,value
2023-03-28T00:00:01.277Z,96084.59
2023-03-28T00:02:29.051Z,96098.81
2023-03-28T00:04:56.776Z,96092.38
2023-03-28T00:07:24.517Z,96110.09
2023-03-28T00:09:52.204Z,96117.63
2023-03-28T00:12:19.951Z,96121.84
2023-03-28T00:14:47.724Z,96116.03
2023-03-28T00:17:17.972Z,96118.22
2023-03-28T00:19:46.972Z,96125.88
2023-03-28T00:22:15.940Z,96137.25
2023-03-28T00:24:44.206Z,96129.22
2023-03-28T00:27:11.917Z,96133.66
2023-03-28T00:29:39.666Z,96129.56
2023-03-28T00:32:07.431Z,96138.84
2023-03-28T00:34:35.237Z,96143.34
2023-03-28T00:37:03.111Z,96158.13
2023-03-28T00:39:31.568Z,96158.44
2023-03-28T00:42:01.551Z,96153.66
2023-03-28T00:44:43.968Z,96161.75
2023-03-28T00:47:25.711Z,96171.28
2023-03-28T00:50:00.153Z,96179.22
2023-03-28T00:52:29.827Z,96185.03
2023-03-28T00:54:57.895Z,96202.53
2023-03-28T00:57:25.841Z,96203.53
2023-03-28T00:59:53.896Z,96203.09
2023-03-28T01:02:21.635Z,96208.72
2023-03-28T01:04:57.824Z,96214.63
2023-03-28T01:07:26.827Z,96223.63
2023-03-28T01:09:54.533Z,96230.63
2023-03-28T01:12:22.938Z,96233.50
2023-03-28T01:14:51.021Z,96240.41
2023-03-28T01:17:19.770Z,96253.59
2023-03-28T01:20:00.115Z,96254.38
2023-03-28T01:22:56.315Z,96236.94
2023-03-28T01:25:31.414Z,96241.84
2023-03-28T01:28:09.817Z,96228.91
2023-03-28T01:30:51.678Z,96232.22
2023-03-28T01:34:13.208Z,96233.09
2023-03-28T01:37:03.229Z,96242.22
2023-03-28T01:39:45.696Z,96233.25
2023-03-28T01:42:44.072Z,96250.78
2023-03-28T01:45:31.830Z,96255.34
2023-03-28T01:48:11.963Z,96256.28
2023-03-28T01:50:52.477Z,96269.50
2023-03-28T01:53:38.793Z,96274.22
2023-03-28T01:56:28.209Z,96280.94
2023-03-28T01:59:03.803Z,96274.69
2023-03-28T02:02:30.087Z,96287.69
2023-03-28T02:05:06.505Z,96285.78
2023-03-28T02:07:38.599Z,96291.72
2023-03-28T02:10:10.703Z,96306.28
2023-03-28T02:13:24.277Z,96299.16
2023-03-28T02:16:00.756Z,96303.59
2023-03-28T02:18:31.498Z,96296.63
2023-03-28T02:21:19.637Z,96300.28
2023-03-28T02:24:04.917Z,96311.34
2023-03-28T02:27:01.851Z,96309.44
2023-03-28T02:29:42.567Z,96322.00
2023-03-28T02:32:34.088Z,96306.81
2023-03-28T02:35:04.273Z,96323.69
2023-03-28T02:37:47.011Z,96336.53
2023-03-28T02:40:46.706Z,96349.09
2023-03-28T02:43:41.704Z,96351.22
2023-03-28T02:46:12.434Z,96358.03
2023-03-28T02:49:04.613Z,96369.84
2023-03-28T02:51:42.248Z,96381.41
2023-03-28T02:54:18.540Z,96370.34
2023-03-28T02:57:18.337Z,96375.59
2023-03-28T03:00:11.459Z,96366.84
2023-03-28T03:02:40.493Z,96364.16
2023-03-28T03:05:09.761Z,96361.38
2023-03-28T03:07:38.067Z,96350.28
2023-03-28T03:10:07.030Z,96352.44
2023-03-28T03:12:36.312Z,96365.00
2023-03-28T03:15:05.397Z,96364.22
2023-03-28T03:17:49.149Z,96372.88
2023-03-28T03:20:26.077Z,96375.50
2023-03-28T03:22:54.785Z,96375.56
2023-03-28T03:25:22.687Z,96396.94
2023-03-28T03:28:09.335Z,96403.03
2023-03-28T03:30:37.369Z,96386.16
2023-03-28T03:33:25.326Z,96392.84
2023-03-28T03:36:02.032Z,96412.28
2023-03-28T03:38:30.036Z,96409.91
2023-03-28T03:40:58.388Z,96415.16
2023-03-28T03:43:27.757Z,96413.81
2023-03-28T03:45:56.404Z,96411.28
2023-03-28T03:48:24.313Z,96417.19
2023-03-28T03:50:57.587Z,96428.50
2023-03-28T03:53:25.842Z,96416.78
2023-03-28T03:56:08.309Z,96442.06
2023-03-28T03:58:53.962Z,96438.63
2023-03-28T04:01:25.984Z,96443.69
2023-03-28T04:03:56.443Z,96450.41
2023-03-28T04:06:31.533Z,96442.53
2023-03-28T04:09:06.154Z,96459.13
2023-03-28T04:11:50.243Z,96461.59
2023-03-28T04:14:18.097Z,96469.38
2023-03-28T04:16:46.575Z,96465.31
2023-03-28T04:19:14.468Z,96458.97
2023-03-28T04:21:48.053Z,96480.06
2023-03-28T04:24:16.334Z,96473.91
2023-03-28T04:26:55.937Z,96481.00
2023-03-28T04:29:33.411Z,96494.50
2023-03-28T04:32:21.287Z,96497.94
2023-03-28T04:35:03.405Z,96496.53
2023-03-28T04:37:31.723Z,96494.97
2023-03-28T04:40:16.343Z,96495.56
2023-03-28T04:42:48.060Z,96490.38
2023-03-28T04:45:21.559Z,96512.78
2023-03-28T04:47:49.692Z,96512.06
2023-03-28T04:50:19.812Z,96512.03
2023-03-28T04:52:47.628Z,96515.41
2023-03-28T04:55:17.361Z,96506.50
2023-03-28T04:57:47.164Z,96527.66
2023-03-28T05:00:17.246Z,96532.91
2023-03-28T05:02:59.912Z,96535.59
2023-03-28T05:05:29.955Z,96536.91
2023-03-28T05:07:58.863Z,96539.72
2023-03-28T05:10:26.660Z,96548.13
2023-03-28T05:13:01.976Z,96533.13
2023-03-28T05:15:31.772Z,96542.41
2023-03-28T05:18:16.285Z,96545.38
2023-03-28T05:20:44.101Z,96537.53
2023-03-28T05:23:12.787Z,96557.00
2023-03-28T05:25:43.270Z,96559.81
2023-03-28T05:28:11.445Z,96555.44
2023-03-28T05:30:48.510Z,96563.44
2023-03-28T05:33:16.837Z,96552.03
2023-03-28T05:35:47.145Z,96555.72
2023-03-28T05:38:16.451Z,96562.84
2023-03-28T05:40:46.823Z,96555.03
2023-03-28T05:43:14.611Z,96559.88
2023-03-28T05:45:42.689Z,96560.84
2023-03-28T05:48:13.643Z,96546.19
2023-03-28T05:50:42.958Z,96561.16
2023-03-28T05:53:11.226Z,96567.44
2023-03-28T05:55:41.507Z,96572.53
2023-03-28T05:58:09.257Z,96577.47
2023-03-28T06:00:42.687Z,96574.53
2023-03-28T06:03:16.829Z,96572.56
2023-03-28T06:05:46.564Z,96576.06
2023-03-28T06:08:27.614Z,96577.09
2023-03-28T06:11:00.406Z,96579.22
2023-03-28T06:13:32.023Z,96581.31
2023-03-28T06:15:59.851Z,96590.91
2023-03-28T06:18:33.581Z,96587.63
2023-03-28T06:21:01.815Z,96601.19
2023-03-28T06:23:29.881Z,96589.03
2023-03-28T06:25:57.858Z,96609.97
2023-03-28T06:28:27.846Z,96613.78
2023-03-28T06:31:19.801Z,96622.19
2023-03-28T06:33:48.354Z,96622.44
2023-03-28T06:36:18.840Z,96618.91
2023-03-28T06:38:47.627Z,96626.56
2023-03-28T06:41:15.751Z,96634.59
2023-03-28T06:43:43.882Z,96632.84
2023-03-28T06:46:31.718Z,96637.72
2023-03-28T06:49:00.965Z,96629.25
2023-03-28T06:51:28.700Z,96619.59
2023-03-28T06:53:56.488Z,96629.47
2023-03-28T06:56:28.521Z,96630.66
2023-03-28T06:58:58.272Z,96620.25
2023-03-28T07:01:29.061Z,96634.59
2023-03-28T07:04:06.166Z,96632.75
2023-03-28T07:06:35.780Z,96647.94
2023-03-28T07:09:06.023Z,96647.44
2023-03-28T07:11:54.582Z,96659.44
2023-03-28T07:14:23.666Z,96654.78
2023-03-28T07:16:51.896Z,96669.59
2023-03-28T07:19:19.722Z,96672.97
2023-03-28T07:21:49.306Z,96668.97
2023-03-28T07:24:17.069Z,96666.66
2023-03-28T07:29:35.922Z,96680.06
2023-03-28T07:32:03.723Z,96674.00
2023-03-28T07:34:31.549Z,96681.06
2023-03-28T07:37:01.558Z,96674.09
2023-03-28T07:40:06.233Z,96697.78
2023-03-28T07:42:34.371Z,96709.63
2023-03-28T07:45:02.175Z,96696.09
2023-03-28T07:47:30.654Z,96688.81
2023-03-28T07:49:58.380Z,96707.56
2023-03-28T07:52:28.106Z,96695.25
2023-03-28T07:54:56.187Z,96691.59
2023-03-28T07:57:24.207Z,96699.06
2023-03-28T08:00:07.993Z,96699.50
2023-03-28T08:02:44.150Z,96708.03
2023-03-28T08:05:13.768Z,96712.41
2023-03-28T08:07:46.012Z,96723.19
2023-03-28T08:10:14.092Z,96725.03
2023-03-28T08:12:42.913Z,96733.81
2023-03-28T08:15:11.413Z,96732.66
2023-03-28T08:17:39.222Z,96727.41
2023-03-28T08:20:10.238Z,96746.91
2023-03-28T08:23:02.940Z,96746.28
2023-03-28T08:25:51.273Z,96754.34
2023-03-28T08:28:24.944Z,96763.34
2023-03-28T08:30:53.061Z,96767.78
2023-03-28T08:33:22.175Z,96763.41
2023-03-28T08:35:52.074Z,96776.19
2023-03-28T08:38:20.390Z,96768.81
2023-03-28T08:40:54.578Z,96783.81
2023-03-28T08:43:32.313Z,96773.63
2023-03-28T08:46:01.399Z,96767.41
2023-03-28T08:48:45.921Z,96772.91
2023-03-28T08:51:28.386Z,96780.28
2023-03-28T08:54:00.950Z,96775.19
2023-03-28T08:56:28.741Z,96780.16
2023-03-28T08:59:07.766Z,96796.38
2023-03-28T09:01:35.518Z,96788.63
2023-03-28T09:04:03.986Z,96790.06
2023-03-28T09:06:40.001Z,96798.66
2023-03-28T09:09:28.566Z,96801.72
2023-03-28T09:12:29.581Z,96814.06
2023-03-28T09:15:00.326Z,96822.56
2023-03-28T09:17:31.279Z,96819.94
2023-03-28T09:20:11.279Z,96826.44
2023-03-28T09:23:13.905Z,96828.16
2023-03-28T09:26:07.136Z,96834.00
2023-03-28T09:29:01.949Z,96841.63
2023-03-28T09:31:35.826Z,96843.66
2023-03-28T09:34:05.014Z,96846.38
2023-03-28T09:36:48.862Z,96846.25
2023-03-28T09:39:33.356Z,96844.00
2023-03-28T09:42:23.441Z,96848.06
2023-03-28T09:45:23.958Z,96840.06
2023-03-28T09:47:54.790Z,96850.06
2023-03-28T09:50:26.505Z,96843.53
2023-03-28T09:52:58.170Z,96845.53
2023-03-28T09:55:30.225Z,96831.38
2023-03-28T09:58:03.352Z,96843.28
2023-03-28T10:00:36.718Z,96838.25
2023-03-28T10:03:32.814Z,96850.50
2023-03-28T10:06:18.549Z,96847.97
2023-03-28T10:08:47.729Z,96838.94
2023-03-28T10:11:27.433Z,96845.41
2023-03-28T10:13:56.480Z,96831.72
2023-03-28T10:16:27.468Z,96852.50
2023-03-28T10:19:22.219Z,96859.38
2023-03-28T10:22:06.351Z,96875.50
2023-03-28T10:24:37.851Z,96858.00
2023-03-28T10:27:17.586Z,96860.81
2023-03-28T10:29:45.854Z,96866.72
2023-03-28T10:32:26.632Z,96864.69
2023-03-28T10:35:26.262Z,96886.38
2023-03-28T10:38:04.811Z,96876.81
2023-03-28T10:41:02.496Z,96871.31
2023-03-28T10:43:50.744Z,96870.25
2023-03-28T10:46:50.839Z,96876.66
2023-03-28T10:49:42.872Z,96870.63
2023-03-28T10:52:25.650Z,96872.91
2023-03-28T10:54:56.910Z,96870.63
2023-03-28T10:57:39.261Z,96868.66
2023-03-28T11:00:12.478Z,96870.06
2023-03-28T11:02:57.717Z,96876.16
2023-03-28T11:06:02.080Z,96890.94
2023-03-28T11:08:43.259Z,96867.94
2023-03-28T11:11:46.706Z,96862.56
2023-03-28T11:14:35.954Z,96870.50
2023-03-28T11:17:26.131Z,96874.44
2023-03-28T11:20:28.324Z,96881.81
2023-03-28T11:23:05.659Z,96868.81
2023-03-28T11:25:46.644Z,96874.38
2023-03-28T11:29:04.531Z,96856.22
2023-03-28T11:31:42.748Z,96871.41
2023-03-28T11:34:14.559Z,96885.47
2023-03-28T13:05:31.969Z,96982.88
2023-03-28T13:08:14.889Z,96977.44
2023-03-28T13:11:04.258Z,96988.31
2023-03-28T13:13:45.652Z,96988.34
2023-03-28T13:16:26.113Z,96991.69
2023-03-28T13:19:08.774Z,96993.66
2023-03-28T13:21:58.351Z,96988.94
2023-03-28T13:24:26.095Z,96994.25
2023-03-28T13:26:57.447Z,96984.09
2023-03-28T13:29:41.956Z,96997.16
2023-03-28T13:32:13.383Z,97004.25
2023-03-28T13:34:46.746Z,96993.66
2023-03-28T13:37:23.289Z,96998.19
2023-03-28T13:39:52.530Z,97006.25
2023-03-28T13:42:31.241Z,97012.16
2023-03-28T13:45:05.243Z,97022.88
2023-03-28T13:47:38.335Z,97026.19
2023-03-28T13:50:18.302Z,97032.88
2023-03-28T13:52:46.189Z,97040.97
2023-03-28T13:55:23.711Z,97037.03
2023-03-28T13:57:51.615Z,97050.00
2023-03-28T14:00:29.055Z,97042.75
2023-03-28T14:03:11.670Z,97064.22
2023-03-28T14:05:44.202Z,97067.19
2023-03-28T14:08:14.846Z,97073.03
2023-03-28T14:10:43.402Z,97074.34
2023-03-28T14:13:18.385Z,97075.28
2023-03-28T14:15:46.204Z,97082.16
2023-03-28T14:18:16.951Z,97085.84
2023-03-28T14:20:45.674Z,97084.19
2023-03-28T14:23:25.596Z,97106.97
2023-03-28T14:25:53.664Z,97097.97
2023-03-28T14:28:21.451Z,97094.13
2023-03-28T14:30:49.239Z,97102.72
2023-03-28T14:33:20.421Z,97105.16
2023-03-28T14:35:59.072Z,97115.53
2023-03-28T14:38:38.478Z,97116.75
2023-03-28T14:41:08.656Z,97119.56
2023-03-28T14:43:37.168Z,97118.44
2023-03-28T14:46:08.179Z,97127.44
2023-03-28T14:48:36.916Z,97121.78
2023-03-28T14:51:05.993Z,97120.28
2023-03-28T14:53:39.392Z,97126.78
2023-03-28T14:56:11.522Z,97142.13
2023-03-28T14:58:40.671Z,97144.38
2023-03-28T15:01:08.924Z,97149.16
2023-03-28T15:03:39.486Z,97142.91
2023-03-28T15:06:08.177Z,97155.16
2023-03-28T15:08:38.036Z,97157.38
2023-03-28T15:11:15.551Z,97161.41
2023-03-28T15:13:48.056Z,97161.31
2023-03-28T15:16:20.559Z,97167.69
2023-03-28T15:18:57.380Z,97162.75
2023-03-28T15:21:25.192Z,97162.50
2023-03-28T15:23:56.427Z,97159.38
2023-03-28T15:26:38.291Z,97157.56
2023-03-28T15:29:06.862Z,97178.78
2023-03-28T15:31:38.332Z,97185.88
2023-03-28T15:34:19.006Z,97186.34
2023-03-28T15:36:58.663Z,97182.09
2023-03-28T15:39:33.516Z,97193.13
2023-03-28T15:42:20.846Z,97206.75
2023-03-28T15:44:57.447Z,97208.25
2023-03-28T15:47:34.364Z,97204.56
2023-03-28T15:50:06.847Z,97218.47
2023-03-28T15:52:35.201Z,97213.66
2023-03-28T15:55:02.966Z,97227.28
2023-03-28T15:57:31.139Z,97232.16
2023-03-28T16:00:00.710Z,97232.03
2023-03-28T16:02:30.065Z,97246.53
2023-03-28T16:05:09.853Z,97243.97
2023-03-28T16:07:46.426Z,97246.94
2023-03-28T16:10:16.254Z,97247.13
2023-03-28T16:13:03.062Z,97258.31
2023-03-28T16:15:44.605Z,97259.69
2023-03-28T16:18:34.401Z,97262.41
2023-03-28T16:21:04.458Z,97260.28
2023-03-28T16:23:32.165Z,97246.19
2023-03-28T16:26:00.109Z,97267.38
2023-03-28T16:28:28.041Z,97269.91
2023-03-28T16:30:55.800Z,97272.53
2023-03-28T16:33:24.686Z,97274.28
2023-03-28T16:35:52.608Z,97278.19
2023-03-28T16:38:21.491Z,97273.91
2023-03-28T16:40:49.206Z,97284.31
2023-03-28T16:43:17.353Z,97282.66
2023-03-28T16:45:47.010Z,97285.72
2023-03-28T16:48:15.075Z,97300.00
2023-03-28T16:50:49.012Z,97293.25
2023-03-28T16:53:16.824Z,97303.59
2023-03-28T16:55:45.497Z,97303.66
2023-03-28T16:58:13.170Z,97317.56
2023-03-28T17:00:44.884Z,97336.44
2023-03-28T17:03:12.780Z,97329.53
2023-03-28T17:05:40.618Z,97346.41
2023-03-28T17:08:08.342Z,97351.25
2023-03-28T17:10:43.369Z,97360.91
2023-03-28T17:13:11.298Z,97361.34
2023-03-28T17:15:39.039Z,97356.22
2023-03-28T17:18:06.848Z,97367.56
2023-03-28T17:20:34.780Z,97376.63
2023-03-28T17:23:02.491Z,97374.94
2023-03-28T17:25:30.205Z,97389.38
2023-03-28T17:27:57.897Z,97385.59
2023-03-28T17:30:25.956Z,97385.88
2023-03-28T17:32:53.732Z,97392.47
2023-03-28T17:35:21.581Z,97399.06
2023-03-28T17:37:49.389Z,97403.88
2023-03-28T17:40:17.151Z,97413.09
2023-03-28T17:42:44.826Z,97406.72
2023-03-28T17:45:13.212Z,97418.19
2023-03-28T17:47:41.045Z,97421.47
2023-03-28T17:50:09.309Z,97427.69
2023-03-28T17:52:37.822Z,97441.91
2023-03-28T17:55:06.322Z,97442.66
2023-03-28T17:57:34.081Z,97447.81
2023-03-28T18:00:02.318Z,97461.34
2023-03-28T18:02:46.181Z,97475.63
2023-03-28T18:05:42.880Z,97476.50
2023-03-28T18:08:10.584Z,97484.34
2023-03-28T18:10:39.429Z,97490.63
2023-03-28T18:13:07.308Z,97483.22
2023-03-28T18:15:36.316Z,97488.78
2023-03-28T18:18:04.860Z,97493.50
2023-03-28T18:20:32.667Z,97503.59
2023-03-28T18:23:00.320Z,97493.22
2023-03-28T18:25:29.768Z,97500.94
2023-03-28T18:27:58.605Z,97502.44
2023-03-28T18:30:27.263Z,97505.63
2023-03-28T18:32:55.034Z,97503.97
2023-03-28T18:35:22.967Z,97500.78
2023-03-28T18:37:50.892Z,97503.09
2023-03-28T18:40:18.960Z,97512.38
2023-03-28T18:42:46.871Z,97512.19
2023-03-28T18:45:14.874Z,97510.88
2023-03-28T18:47:42.721Z,97511.41
2023-03-28T18:50:10.859Z,97525.38
2023-03-28T18:52:38.745Z,97527.41
2023-03-28T18:55:06.994Z,97537.03
2023-03-28T18:57:35.032Z,97535.19
2023-03-28T19:00:16.015Z,97534.03
2023-03-28T19:02:47.839Z,97531.03
2023-03-28T19:05:16.542Z,97549.97
2023-03-28T19:07:44.774Z,97540.81
2023-03-28T19:10:13.400Z,97545.31
2023-03-28T19:12:41.694Z,97576.56
2023-03-28T19:15:10.991Z,97569.69
2023-03-28T19:17:40.059Z,97566.34
2023-03-28T19:20:12.644Z,97577.16
2023-03-28T19:22:40.585Z,97576.72
2023-03-28T19:25:09.285Z,97577.69
2023-03-28T19:27:37.896Z,97579.19
2023-03-28T19:30:07.263Z,97586.06
2023-03-28T19:32:35.005Z,97586.25
2023-03-28T19:35:02.868Z,97599.06
2023-03-28T19:37:30.563Z,97588.88
2023-03-28T19:40:01.347Z,97590.63
2023-03-28T19:42:29.082Z,97586.94
2023-03-28T19:44:56.881Z,97584.84
2023-03-28T19:47:24.633Z,97595.22
2023-03-28T19:49:52.405Z,97590.75
2023-03-28T19:52:20.300Z,97604.13
2023-03-28T19:54:48.207Z,97604.72
2023-03-28T19:57:16.145Z,97599.19
2023-03-28T19:59:43.910Z,97599.72
2023-03-28T20:02:11.641Z,97598.97
2023-03-28T20:04:39.491Z,97603.41
2023-03-28T20:07:07.217Z,97611.78
2023-03-28T20:09:35.614Z,97605.91
2023-03-28T20:12:03.780Z,97611.50
2023-03-28T20:14:31.629Z,97602.19
2023-03-28T20:16:59.374Z,97608.91
2023-03-28T20:19:27.078Z,97608.53
2023-03-28T20:21:54.789Z,97608.63
2023-03-28T20:24:22.475Z,97622.50
2023-03-28T20:26:50.381Z,97616.03
2023-03-28T20:29:18.099Z,97612.66
2023-03-28T20:31:46.200Z,97619.81
2023-03-28T20:34:13.951Z,97624.72
2023-03-28T20:36:42.286Z,97623.13
2023-03-28T20:39:10.004Z,97628.94
2023-03-28T20:41:38.025Z,97627.88
2023-03-28T20:44:05.824Z,97627.69
2023-03-28T20:46:36.790Z,97634.25
2023-03-28T20:49:06.412Z,97640.63
2023-03-28T20:51:38.843Z,97635.72
2023-03-28T20:54:07.085Z,97638.72
2023-03-28T20:56:35.479Z,97634.94
2023-03-28T20:59:04.375Z,97629.66
2023-03-28T21:01:32.648Z,97641.88
2023-03-28T21:04:02.186Z,97643.66
2023-03-28T21:06:33.340Z,97643.69
2023-03-28T21:09:02.070Z,97641.91
2023-03-28T21:11:31.852Z,97651.03
2023-03-28T21:14:00.256Z,97632.44
2023-03-28T21:16:28.680Z,97633.72
2023-03-28T21:18:56.522Z,97631.47
2023-03-28T21:21:24.393Z,97640.00
2023-03-28T21:23:53.201Z,97644.06
2023-03-28T21:26:21.434Z,97649.03
2023-03-28T21:28:49.428Z,97645.00
2023-03-28T21:31:20.855Z,97649.25
2023-03-28T21:33:49.070Z,97642.38
2023-03-28T21:36:17.610Z,97654.47
2023-03-28T21:38:45.621Z,97655.59
2023-03-28T21:41:13.666Z,97658.75
2023-03-28T21:43:41.642Z,97664.81
2023-03-28T21:46:09.621Z,97666.75
2023-03-28T21:48:37.609Z,97661.97
2023-03-28T21:51:06.070Z,97659.72
2023-03-28T21:53:36.195Z,97668.91
2023-03-28T21:56:04.755Z,97672.00
2023-03-28T21:58:33.370Z,97681.59
2023-03-28T22:01:01.843Z,97682.66
2023-03-28T22:03:29.979Z,97677.84
2023-03-28T22:05:57.898Z,97689.94
2023-03-28T22:08:25.609Z,97684.41
2023-03-28T22:10:55.123Z,97678.91
2023-03-28T22:13:24.005Z,97675.31
2023-03-28T22:15:52.480Z,97679.78
2023-03-28T22:18:20.606Z,97683.59
2023-03-28T22:20:49.729Z,97679.13
2023-03-28T22:23:17.744Z,97683.28
2023-03-28T22:25:46.635Z,97685.69
2023-03-28T22:28:14.767Z,97689.28
2023-03-28T22:30:42.542Z,97687.16
2023-03-28T22:33:11.073Z,97694.25
2023-03-28T22:35:39.141Z,97690.63
2023-03-28T22:38:06.914Z,97690.84
2023-03-28T22:40:34.709Z,97695.22
2023-03-28T22:43:03.245Z,97693.47
2023-03-28T22:45:31.126Z,97694.56
2023-03-28T22:48:00.498Z,97686.53
2023-03-28T22:50:28.646Z,97690.19
2023-03-28T22:52:56.374Z,97693.56
2023-03-28T22:55:24.218Z,97691.13
2023-03-28T22:57:52.534Z,97702.03
2023-03-28T23:00:23.633Z,97691.84
2023-03-28T23:02:52.027Z,97690.75
2023-03-28T23:05:20.119Z,97695.69
2023-03-28T23:07:48.757Z,97691.84
2023-03-28T23:10:17.618Z,97692.44
2023-03-28T23:12:46.059Z,97702.03
2023-03-28T23:15:13.989Z,97697.41
2023-03-28T23:17:42.898Z,97709.03
2023-03-28T23:20:19.126Z,97710.66
2023-03-28T23:22:47.839Z,97704.25
2023-03-28T23:25:17.091Z,97726.91
2023-03-28T23:27:44.860Z,97708.94
2023-03-28T23:30:13.669Z,97712.13
2023-03-28T23:32:41.550Z,97728.31
2023-03-28T23:35:10.516Z,97727.59
2023-03-28T23:37:38.659Z,97715.00
2023-03-28T23:40:10.731Z,97724.78
2023-03-28T23:42:38.588Z,97723.75
2023-03-28T23:45:06.869Z,97723.31
2023-03-28T23:47:34.605Z,97724.94
2023-03-28T23:50:02.303Z,97723.22
2023-03-28T23:52:30.642Z,97728.91
2023-03-28T23:54:58.321Z,97737.78
2023-03-28T23:57:28.535Z,97724.78
2023-03-28T23:59:56.548Z,97738.81
